createdAt,value
2022-11-18T00:01:25.433Z,13.00
2022-11-18T00:03:54.150Z,13.00
2022-11-18T00:06:24.254Z,13.10
2022-11-18T00:08:54.357Z,13.10
2022-11-18T00:11:41.653Z,13.10
2022-11-18T00:14:20.672Z,13.10
2022-11-18T00:16:50.485Z,13.10
2022-11-18T00:19:19.437Z,13.00
2022-11-18T00:21:47.877Z,13.10
2022-11-18T00:24:17.553Z,13.10
2022-11-18T00:26:45.778Z,13.00
2022-11-18T00:29:14.860Z,13.10
2022-11-18T00:31:43.589Z,13.00
2022-11-18T00:34:13.952Z,13.10
2022-11-18T00:36:42.412Z,13.00
2022-11-18T00:39:12.810Z,13.00
2022-11-18T00:42:00.183Z,13.10
2022-11-18T00:44:28.535Z,13.10
2022-11-18T00:46:57.132Z,13.10
2022-11-18T00:49:25.720Z,13.10
2022-11-18T00:51:53.891Z,13.00
2022-11-18T00:54:22.311Z,13.10
2022-11-18T00:56:52.091Z,13.10
2022-11-18T00:59:20.956Z,13.10
2022-11-18T01:01:49.951Z,13.10
2022-11-18T01:04:18.631Z,13.10
2022-11-18T01:06:47.236Z,13.10
2022-11-18T01:09:15.879Z,13.10
2022-11-18T01:12:01.975Z,13.10
2022-11-18T01:14:31.551Z,13.10
2022-11-18T01:16:59.736Z,13.10
2022-11-18T01:19:28.271Z,13.10
2022-11-18T01:21:56.932Z,13.10
2022-11-18T01:24:25.129Z,13.10
2022-11-18T01:26:53.304Z,13.10
2022-11-18T01:29:21.535Z,13.10
2022-11-18T01:32:17.447Z,13.10
2022-11-18T01:34:39.404Z,13.10
2022-11-18T01:37:07.595Z,13.10
2022-11-18T01:39:35.849Z,13.10
2022-11-18T01:42:04.074Z,13.10
2022-11-18T01:45:05.052Z,13.10
2022-11-18T01:47:40.195Z,13.10
2022-11-18T01:50:10.119Z,13.10
2022-11-18T01:52:38.930Z,13.10
2022-11-18T01:55:12.281Z,13.10
2022-11-18T01:57:42.251Z,13.10
2022-11-18T02:00:12.250Z,13.10
2022-11-18T02:02:42.288Z,13.10
2022-11-18T02:05:12.025Z,13.10
2022-11-18T02:07:43.418Z,13.10
2022-11-18T02:10:20.022Z,13.10
2022-11-18T02:12:48.696Z,13.10
2022-11-18T02:15:17.661Z,13.10
2022-11-18T02:17:56.772Z,13.10
2022-11-18T02:20:37.013Z,13.00
2022-11-18T02:23:47.503Z,13.10
2022-11-18T02:26:48.378Z,13.10
2022-11-18T02:29:22.056Z,13.10
2022-11-18T02:31:56.466Z,13.10
2022-11-18T02:34:34.453Z,13.00
2022-11-18T02:37:08.457Z,13.00
2022-11-18T02:39:45.465Z,13.10
2022-11-18T02:42:16.303Z,13.00
2022-11-18T02:44:52.221Z,13.10
2022-11-18T02:47:22.002Z,13.00
2022-11-18T02:49:55.294Z,13.10
2022-11-18T02:52:25.862Z,13.00
2022-11-18T02:54:57.873Z,13.00
2022-11-18T02:57:27.612Z,13.10
2022-11-18T02:59:57.461Z,13.00
2022-11-18T03:02:26.283Z,13.00
2022-11-18T03:05:01.750Z,13.00
2022-11-18T03:07:34.251Z,13.00
2022-11-18T03:10:04.234Z,13.00
2022-11-18T03:12:42.312Z,13.00
2022-11-18T03:15:22.923Z,13.00
2022-11-18T03:18:01.685Z,13.00
2022-11-18T03:20:33.938Z,13.00
2022-11-18T03:23:08.576Z,13.00
2022-11-18T03:25:42.971Z,13.00
2022-11-18T03:28:15.978Z,13.00
2022-11-18T03:30:51.722Z,13.00
2022-11-18T03:33:24.206Z,12.90
2022-11-18T03:35:56.760Z,13.00
2022-11-18T03:38:31.462Z,13.00
2022-11-18T03:41:02.802Z,13.00
2022-11-18T03:43:35.590Z,13.00
2022-11-18T03:46:08.178Z,12.90
2022-11-18T03:48:41.835Z,12.90
2022-11-18T03:51:12.699Z,13.00
2022-11-18T03:53:45.417Z,12.90
2022-11-18T03:56:17.942Z,12.90
2022-11-18T03:58:53.382Z,12.90
2022-11-18T04:01:29.104Z,12.90
2022-11-18T04:03:57.392Z,12.60
2022-11-18T04:06:32.088Z,12.90
2022-11-18T04:09:04.060Z,12.90
2022-11-18T04:11:55.574Z,13.00
2022-11-18T04:14:23.953Z,12.90
2022-11-18T04:16:54.109Z,12.90
2022-11-18T04:19:23.014Z,12.90
2022-11-18T04:21:51.676Z,12.90
2022-11-18T04:24:20.044Z,12.90
2022-11-18T04:26:48.365Z,12.90
2022-11-18T04:29:16.926Z,12.90
2022-11-18T04:31:45.232Z,13.00
2022-11-18T04:34:15.172Z,12.90
2022-11-18T04:36:46.508Z,12.90
2022-11-18T04:39:15.176Z,13.00
2022-11-18T04:41:58.530Z,12.90
2022-11-18T04:44:27.970Z,12.90
2022-11-18T04:46:57.757Z,12.90
2022-11-18T04:49:28.275Z,12.90
2022-11-18T04:52:00.333Z,12.90
2022-11-18T04:54:28.975Z,12.90
2022-11-18T04:56:57.843Z,12.90
2022-11-18T04:59:28.223Z,12.90
2022-11-18T05:01:57.289Z,12.90
2022-11-18T05:04:30.076Z,12.90
2022-11-18T05:06:58.710Z,12.90
2022-11-18T05:09:31.758Z,12.90
2022-11-18T05:12:18.689Z,12.90
2022-11-18T05:14:50.433Z,12.90
2022-11-18T05:17:19.565Z,12.90
2022-11-18T05:19:49.153Z,12.90
2022-11-18T05:22:17.533Z,12.90
2022-11-18T05:24:45.747Z,12.90
2022-11-18T05:27:15.182Z,12.90
2022-11-18T05:29:43.616Z,12.90
2022-11-18T05:32:14.465Z,12.90
2022-11-18T05:34:44.910Z,12.90
2022-11-18T05:37:14.748Z,12.90
2022-11-18T05:39:42.966Z,12.90
2022-11-18T05:42:29.080Z,12.90
2022-11-18T05:44:58.686Z,12.90
2022-11-18T05:47:27.288Z,12.90
2022-11-18T05:49:55.826Z,12.90
2022-11-18T05:52:25.404Z,12.90
2022-11-18T05:54:53.559Z,12.80
2022-11-18T05:57:21.734Z,12.80
2022-11-18T05:59:49.883Z,12.80
2022-11-18T06:02:22.600Z,12.80
2022-11-18T06:04:57.435Z,12.80
2022-11-18T06:07:29.432Z,12.80
2022-11-18T06:10:05.123Z,12.80
2022-11-18T06:12:43.763Z,12.80
2022-11-18T06:15:16.907Z,12.80
2022-11-18T06:17:48.107Z,12.80
2022-11-18T06:20:18.874Z,12.80
2022-11-18T06:22:49.264Z,12.80
2022-11-18T06:25:18.155Z,12.80
2022-11-18T06:27:47.610Z,12.80
2022-11-18T06:30:16.430Z,12.90
2022-11-18T06:32:44.640Z,12.80
2022-11-18T06:35:12.876Z,12.80
2022-11-18T06:37:41.035Z,12.80
2022-11-18T06:40:12.597Z,12.80
2022-11-18T06:42:58.166Z,12.80
2022-11-18T06:45:26.484Z,12.80
2022-11-18T06:47:57.151Z,12.80
2022-11-18T06:50:25.659Z,12.80
2022-11-18T06:52:54.165Z,12.80
2022-11-18T06:55:23.729Z,12.80
2022-11-18T06:57:52.024Z,12.80
2022-11-18T07:00:20.719Z,12.80
2022-11-18T07:02:48.964Z,12.80
2022-11-18T07:05:17.400Z,12.80
2022-11-18T07:07:45.859Z,12.80
2022-11-18T07:10:14.240Z,12.80
2022-11-18T07:12:43.894Z,12.80
2022-11-18T07:15:12.449Z,12.80
2022-11-18T07:17:40.672Z,12.80
2022-11-18T07:20:09.898Z,12.80
2022-11-18T07:22:38.156Z,12.80
2022-11-18T07:25:07.155Z,12.80
2022-11-18T07:27:35.378Z,12.80
2022-11-18T07:30:05.498Z,12.80
2022-11-18T07:32:34.538Z,12.80
2022-11-18T07:35:02.876Z,12.80
2022-11-18T07:37:31.159Z,12.80
2022-11-18T07:40:00.043Z,12.70
2022-11-18T07:42:28.374Z,12.80
2022-11-18T07:44:56.629Z,12.80
2022-11-18T07:47:26.181Z,12.70
2022-11-18T07:49:54.357Z,12.80
2022-11-18T07:52:22.612Z,12.70
2022-11-18T07:54:52.982Z,12.70
2022-11-18T07:57:21.237Z,12.70
2022-11-18T07:59:49.406Z,12.70
2022-11-18T08:02:17.933Z,12.70
2022-11-18T08:04:50.475Z,12.70
2022-11-18T08:07:18.752Z,12.70
2022-11-18T08:09:47.015Z,12.70
2022-11-18T08:12:15.189Z,12.70
2022-11-18T08:14:43.432Z,12.70
2022-11-18T08:17:12.153Z,12.70
2022-11-18T08:19:43.230Z,12.70
2022-11-18T08:22:13.122Z,12.70
2022-11-18T08:24:43.021Z,12.70
2022-11-18T08:27:11.219Z,12.70
2022-11-18T08:29:39.613Z,12.70
2022-11-18T08:32:08.364Z,12.70
2022-11-18T08:34:37.032Z,12.70
2022-11-18T08:37:05.439Z,12.70
2022-11-18T08:39:35.160Z,12.70
2022-11-18T08:42:03.413Z,12.70
2022-11-18T08:44:34.653Z,12.60
2022-11-18T08:47:03.209Z,12.60
2022-11-18T08:49:32.612Z,12.60
2022-11-18T08:52:02.931Z,12.60
2022-11-18T08:54:32.535Z,12.60
2022-11-18T08:57:02.249Z,12.70
2022-11-18T08:59:30.521Z,12.60
2022-11-18T09:02:01.254Z,12.70
2022-11-18T09:04:29.764Z,12.70
2022-11-18T09:07:01.072Z,12.70
2022-11-18T09:09:29.375Z,12.60
2022-11-18T09:12:01.878Z,12.70
2022-11-18T09:15:12.250Z,12.60
2022-11-18T09:17:18.533Z,12.70
2022-11-18T09:19:48.252Z,12.70
2022-11-18T09:22:16.989Z,12.70
2022-11-18T09:24:45.290Z,12.70
2022-11-18T09:27:17.372Z,12.60
2022-11-18T09:29:46.470Z,12.70
2022-11-18T09:32:14.795Z,12.70
2022-11-18T09:34:43.051Z,12.70
2022-11-18T09:37:11.303Z,12.70
2022-11-18T09:39:39.487Z,12.70
2022-11-18T09:42:27.812Z,12.70
2022-11-18T09:45:13.531Z,12.60
2022-11-18T09:47:43.753Z,12.70
2022-11-18T09:50:47.150Z,12.70
2022-11-18T09:53:13.493Z,12.70
2022-11-18T09:55:43.548Z,12.70
2022-11-18T09:58:19.363Z,12.70
2022-11-18T10:00:48.057Z,12.70
2022-11-18T10:03:24.364Z,12.70
2022-11-18T10:05:58.183Z,12.70
2022-11-18T10:08:29.705Z,12.70
2022-11-18T10:11:04.704Z,12.70
2022-11-18T10:13:48.900Z,12.70
2022-11-18T10:16:32.695Z,12.70
2022-11-18T10:19:11.475Z,12.70
2022-11-18T10:21:50.116Z,12.80
2022-11-18T10:24:21.439Z,12.70
2022-11-18T10:26:56.621Z,12.80
2022-11-18T10:29:26.735Z,12.80
2022-11-18T10:32:03.757Z,12.70
2022-11-18T10:34:33.214Z,12.80
2022-11-18T10:37:03.711Z,12.80
2022-11-18T10:39:32.349Z,12.80
2022-11-18T10:42:03.462Z,12.80
2022-11-18T10:44:38.554Z,12.80
2022-11-18T10:47:30.545Z,12.90
2022-11-18T10:50:00.804Z,12.80
2022-11-18T10:52:32.093Z,12.90
2022-11-18T10:55:26.166Z,13.20
2022-11-18T10:58:04.348Z,12.90
2022-11-18T11:00:43.418Z,12.90
2022-11-18T11:03:25.001Z,12.90
2022-11-18T11:06:23.290Z,12.90
2022-11-18T11:08:53.152Z,12.90
2022-11-18T11:11:26.676Z,12.90
2022-11-18T11:14:01.946Z,12.90
2022-11-18T11:16:34.089Z,12.90
2022-11-18T11:19:05.015Z,13.00
2022-11-18T11:21:33.259Z,13.00
2022-11-18T11:24:01.476Z,13.00
2022-11-18T11:29:46.745Z,13.00
2022-11-18T11:32:27.198Z,13.10
2022-11-18T11:35:03.938Z,13.10
2022-11-18T11:37:45.652Z,13.10
2022-11-18T11:40:26.698Z,13.20
2022-11-18T11:43:10.082Z,13.10
2022-11-18T11:45:47.977Z,13.10
2022-11-18T11:48:32.100Z,13.20
2022-11-18T11:51:08.404Z,13.20
2022-11-18T11:54:11.832Z,13.20
2022-11-18T11:56:45.871Z,13.20
2022-11-18T11:59:29.149Z,13.20
2022-11-18T12:02:19.210Z,13.20
2022-11-18T12:04:52.577Z,13.20
2022-11-18T12:07:23.377Z,13.30
2022-11-18T12:10:03.775Z,13.20
2022-11-18T12:12:38.588Z,13.20
2022-11-18T12:15:27.042Z,13.20
2022-11-18T12:18:05.958Z,12.90
2022-11-18T12:20:47.087Z,13.30
2022-11-18T12:23:19.684Z,13.30
2022-11-18T12:26:06.467Z,13.30
2022-11-18T12:28:37.911Z,13.30
2022-11-18T12:31:36.479Z,13.30
2022-11-18T12:34:27.975Z,13.30
2022-11-18T12:36:57.838Z,13.30
2022-11-18T12:39:50.262Z,13.30
2022-11-18T12:42:56.852Z,13.20
2022-11-18T12:45:59.167Z,13.30
2022-11-18T12:48:50.315Z,13.30
2022-11-18T12:51:46.236Z,13.30
2022-11-18T12:54:36.094Z,13.30
2022-11-18T12:57:16.524Z,13.30
2022-11-18T12:59:45.139Z,13.30
2022-11-18T13:02:24.847Z,13.30
2022-11-18T13:05:08.454Z,13.30
2022-11-18T13:08:04.386Z,13.30
2022-11-18T13:10:36.589Z,13.30
2022-11-18T13:13:05.291Z,13.40
2022-11-18T13:15:51.134Z,13.40
2022-11-18T13:18:21.509Z,13.40
2022-11-18T13:20:57.747Z,13.40
2022-11-18T13:23:46.657Z,13.40
2022-11-18T13:26:21.588Z,13.50
2022-11-18T13:29:20.464Z,13.40
2022-11-18T13:31:58.271Z,13.40
2022-11-18T13:34:28.353Z,13.50
2022-11-18T13:37:02.152Z,13.40
2022-11-18T13:39:32.948Z,13.40
2022-11-18T13:42:04.218Z,13.40
2022-11-18T13:44:35.096Z,13.40
2022-11-18T13:47:13.161Z,13.50
2022-11-18T13:49:50.971Z,13.40
2022-11-18T13:52:24.727Z,13.50
2022-11-18T13:54:54.788Z,13.40
2022-11-18T13:57:26.751Z,13.50
2022-11-18T13:59:55.691Z,13.40
2022-11-18T14:02:24.251Z,13.50
2022-11-18T14:04:57.006Z,13.50
2022-11-18T14:07:34.182Z,13.50
2022-11-18T14:10:07.771Z,13.40
2022-11-18T14:12:38.037Z,13.40
2022-11-18T14:15:23.414Z,13.50
2022-11-18T14:17:56.773Z,13.40
2022-11-18T14:20:26.157Z,13.40
2022-11-18T14:22:57.004Z,13.50
2022-11-18T14:25:28.911Z,13.50
2022-11-18T14:28:10.467Z,13.50
2022-11-18T14:30:40.091Z,13.50
2022-11-18T14:33:13.957Z,13.50
2022-11-18T14:35:44.175Z,13.50
2022-11-18T14:41:06.943Z,13.50
2022-11-18T14:43:36.540Z,13.50
2022-11-18T14:46:06.518Z,13.50
2022-11-18T14:48:34.866Z,13.50
2022-11-18T14:51:03.167Z,13.50
2022-11-18T14:53:31.355Z,13.50
2022-11-18T14:56:01.286Z,13.50
2022-11-18T14:58:29.599Z,13.50
2022-11-18T15:00:59.340Z,13.50
2022-11-18T15:03:27.721Z,13.50
2022-11-18T15:05:56.194Z,13.50
2022-11-18T15:08:26.011Z,13.50
2022-11-18T15:10:54.488Z,13.40
2022-11-18T15:13:22.890Z,13.40
2022-11-18T15:15:51.076Z,13.40
2022-11-18T15:18:24.980Z,13.40
2022-11-18T15:20:53.312Z,13.50
2022-11-18T15:23:24.595Z,13.40
2022-11-18T15:25:56.947Z,13.40
2022-11-18T15:28:25.134Z,13.40
2022-11-18T15:30:53.384Z,13.40
2022-11-18T15:33:22.877Z,13.40
2022-11-18T15:35:51.092Z,13.40
2022-11-18T15:38:19.375Z,13.40
2022-11-18T15:40:47.540Z,13.30
2022-11-18T15:43:17.777Z,13.30
2022-11-18T15:45:45.985Z,13.30
2022-11-18T15:48:14.150Z,13.30
2022-11-18T15:50:43.638Z,13.30
2022-11-18T15:53:11.799Z,13.30
2022-11-18T15:55:39.936Z,13.20
2022-11-18T15:58:08.690Z,13.20
2022-11-18T16:00:36.913Z,13.10
2022-11-18T16:03:05.166Z,13.10
2022-11-18T16:05:33.466Z,13.10
2022-11-18T16:08:03.029Z,13.10
2022-11-18T16:10:48.953Z,13.10
2022-11-18T16:13:22.027Z,13.10
2022-11-18T16:15:50.541Z,13.10
2022-11-18T16:18:19.641Z,13.10
2022-11-18T16:20:47.961Z,13.00
2022-11-18T16:23:17.603Z,13.00
2022-11-18T16:25:46.250Z,13.00
2022-11-18T16:28:14.505Z,13.00
2022-11-18T16:31:00.476Z,13.00
2022-11-18T16:33:28.674Z,13.00
2022-11-18T16:35:56.907Z,13.00
2022-11-18T16:38:27.338Z,13.00
2022-11-18T16:41:01.121Z,13.00
2022-11-18T16:43:30.999Z,13.00
2022-11-18T16:45:59.232Z,13.00
2022-11-18T16:48:27.484Z,13.00
2022-11-18T16:51:18.698Z,13.00
2022-11-18T16:53:59.057Z,13.00
2022-11-18T16:56:29.092Z,13.00
2022-11-18T16:58:59.341Z,13.00
2022-11-18T17:01:29.598Z,13.00
2022-11-18T17:04:00.361Z,13.00
2022-11-18T17:06:29.349Z,13.00
2022-11-18T17:08:59.360Z,13.00
2022-11-18T17:11:30.660Z,13.00
2022-11-18T17:13:58.893Z,13.00
2022-11-18T17:16:27.970Z,13.00
2022-11-18T17:18:57.808Z,13.00
2022-11-18T17:21:27.265Z,13.00
2022-11-18T17:23:56.293Z,13.00
2022-11-18T17:26:27.558Z,13.00
2022-11-18T17:28:56.497Z,13.00
2022-11-18T17:31:25.894Z,13.00
2022-11-18T17:33:55.150Z,12.90
2022-11-18T17:36:25.047Z,12.90
2022-11-18T17:38:55.502Z,12.90
2022-11-18T17:41:45.034Z,12.80
2022-11-18T17:44:15.366Z,12.80
2022-11-18T17:46:44.388Z,12.80
2022-11-18T17:49:14.334Z,12.70
2022-11-18T17:51:43.322Z,12.70
2022-11-18T17:54:11.942Z,12.70
2022-11-18T17:56:41.510Z,12.70
2022-11-18T17:59:09.656Z,12.60
2022-11-18T18:01:37.870Z,12.60
2022-11-18T18:04:06.497Z,12.70
2022-11-18T18:06:34.784Z,12.70
2022-11-18T18:09:02.962Z,12.40
2022-11-18T18:11:31.214Z,12.70
2022-11-18T18:14:14.623Z,12.70
2022-11-18T18:16:45.520Z,12.70
2022-11-18T18:19:16.325Z,12.70
2022-11-18T18:21:45.051Z,12.70
2022-11-18T18:24:14.749Z,12.70
2022-11-18T18:26:43.316Z,12.70
2022-11-18T18:29:14.056Z,12.80
2022-11-18T18:31:42.536Z,12.80
2022-11-18T18:34:12.221Z,12.70
2022-11-18T18:36:40.474Z,12.80
2022-11-18T18:39:08.808Z,12.80
2022-11-18T18:41:38.442Z,12.80
2022-11-18T18:44:06.776Z,12.80
2022-11-18T18:46:36.682Z,12.80
2022-11-18T18:49:06.859Z,12.80
2022-11-18T18:51:37.917Z,12.80
2022-11-18T18:54:06.853Z,12.80
2022-11-18T18:56:35.465Z,12.80
2022-11-18T18:59:03.918Z,12.80
2022-11-18T19:01:33.524Z,12.80
2022-11-18T19:04:05.581Z,12.80
2022-11-18T19:09:24.891Z,12.80
2022-11-18T19:12:10.962Z,12.80
2022-11-18T19:14:39.252Z,12.80
2022-11-18T19:17:11.123Z,12.80
2022-11-18T19:19:56.680Z,12.80
2022-11-18T19:22:25.897Z,12.80
2022-11-18T19:24:54.692Z,12.80
2022-11-18T19:27:23.614Z,12.80
2022-11-18T19:29:51.769Z,12.80
2022-11-18T19:32:20.141Z,12.80
2022-11-18T19:34:52.757Z,12.80
2022-11-18T19:37:21.041Z,12.80
2022-11-18T19:39:52.055Z,12.80
2022-11-18T19:42:20.430Z,12.80
2022-11-18T19:44:48.645Z,12.70
2022-11-18T19:47:16.833Z,12.80
2022-11-18T19:49:45.050Z,12.70
2022-11-18T19:52:14.972Z,12.70
2022-11-18T19:54:44.515Z,12.80
2022-11-18T19:57:12.902Z,12.70
2022-11-18T19:59:41.306Z,12.70
2022-11-18T20:02:11.487Z,12.70
2022-11-18T20:04:39.980Z,12.80
2022-11-18T20:07:08.408Z,12.70
2022-11-18T20:09:38.317Z,12.70
2022-11-18T20:12:07.201Z,12.70
2022-11-18T20:14:35.632Z,12.70
2022-11-18T20:17:10.200Z,12.70
2022-11-18T20:19:41.212Z,12.70
2022-11-18T20:22:09.441Z,12.70
2022-11-18T20:24:39.107Z,12.70
2022-11-18T20:27:09.988Z,12.70
2022-11-18T20:29:38.155Z,12.70
2022-11-18T20:32:06.859Z,12.70
2022-11-18T20:34:36.065Z,12.70
2022-11-18T20:37:04.434Z,12.70
2022-11-18T20:39:32.555Z,12.70
2022-11-18T20:42:19.379Z,12.70
2022-11-18T20:44:47.570Z,12.70
2022-11-18T20:47:16.015Z,12.70
2022-11-18T20:49:44.354Z,12.60
2022-11-18T20:52:12.623Z,12.60
2022-11-18T20:54:40.872Z,12.60
2022-11-18T20:57:10.504Z,12.60
2022-11-18T20:59:38.754Z,12.60
2022-11-18T21:02:07.119Z,12.60
2022-11-18T21:04:35.511Z,12.60
2022-11-18T21:07:04.302Z,12.60
2022-11-18T21:09:33.456Z,12.60
2022-11-18T21:12:01.877Z,12.60
2022-11-18T21:14:30.421Z,12.60
2022-11-18T21:17:00.700Z,12.60
2022-11-18T21:19:29.955Z,12.60
2022-11-18T21:21:58.431Z,12.60
2022-11-18T21:24:29.982Z,12.60
2022-11-18T21:26:59.145Z,12.60
2022-11-18T21:29:29.336Z,12.60
2022-11-18T21:32:01.340Z,12.70
2022-11-18T21:34:30.494Z,12.60
2022-11-18T21:36:58.773Z,12.60
2022-11-18T21:39:27.464Z,12.60
2022-11-18T21:41:57.284Z,12.60
2022-11-18T21:44:27.929Z,12.60
2022-11-18T21:46:58.126Z,12.60
2022-11-18T21:49:26.339Z,12.60
2022-11-18T21:51:56.342Z,12.60
2022-11-18T21:54:24.586Z,12.60
2022-11-18T21:56:55.461Z,12.60
2022-11-18T21:59:23.923Z,12.60
2022-11-18T22:01:52.189Z,12.60
2022-11-18T22:04:42.619Z,12.60
2022-11-18T22:07:11.002Z,12.60
2022-11-18T22:09:39.319Z,12.60
2022-11-18T22:12:08.144Z,12.60
2022-11-18T22:14:36.826Z,12.50
2022-11-18T22:17:05.755Z,12.60
2022-11-18T22:19:39.605Z,12.50
2022-11-18T22:22:09.073Z,12.50
2022-11-18T22:24:37.292Z,12.50
2022-11-18T22:27:11.004Z,12.50
2022-11-18T22:29:41.463Z,12.50
2022-11-18T22:32:09.738Z,12.50
2022-11-18T22:34:39.277Z,12.50
2022-11-18T22:37:09.140Z,12.50
2022-11-18T22:39:37.291Z,12.40
2022-11-18T22:42:23.073Z,12.40
2022-11-18T22:44:51.340Z,12.50
2022-11-18T22:47:19.528Z,12.40
2022-11-18T22:49:52.155Z,12.40
2022-11-18T22:52:23.333Z,12.40
2022-11-18T22:54:51.551Z,12.40
2022-11-18T22:57:19.723Z,12.40
2022-11-18T22:59:47.882Z,12.40
2022-11-18T23:02:16.054Z,12.30
2022-11-18T23:04:44.205Z,12.40
2022-11-18T23:07:13.745Z,12.30
2022-11-18T23:09:41.984Z,12.30
2022-11-18T23:12:27.712Z,12.30
2022-11-18T23:14:55.962Z,12.20
2022-11-18T23:17:24.133Z,12.20
2022-11-18T23:19:52.426Z,12.20
2022-11-18T23:22:25.950Z,12.20
2022-11-18T23:24:54.111Z,12.20
2022-11-18T23:27:22.330Z,12.10
2022-11-18T23:29:50.552Z,12.10
2022-11-18T23:32:18.743Z,12.10
2022-11-18T23:34:48.262Z,12.10
2022-11-18T23:37:19.441Z,12.10
2022-11-18T23:39:49.007Z,12.10
2022-11-18T23:42:17.180Z,12.00
2022-11-18T23:44:50.213Z,12.00
2022-11-18T23:47:18.810Z,12.00
2022-11-18T23:49:46.975Z,12.00
2022-11-18T23:52:15.277Z,12.00
2022-11-18T23:54:43.491Z,12.00
2022-11-18T23:57:13.046Z,11.90
2022-11-18T23:59:41.173Z,11.90
